sensor_id;sensor_type;location;lat;lon;timestamp;P1;durP1;ratioP1;P2;durP2;ratioP2
21089;SDS011;10703;51.020;6.128;2023-08-20T00:00:57;37.17;;;22.27;;
21089;SDS011;10703;51.020;6.128;2023-08-20T00:03:25;38.00;;;23.37;;
21089;SDS011;10703;51.020;6.128;2023-08-20T00:05:52;41.70;;;24.17;;
21089;SDS011;10703;51.020;6.128;2023-08-20T00:08:19;39.90;;;24.17;;
21089;SDS011;10703;51.020;6.128;2023-08-20T00:10:46;46.67;;;26.07;;
21089;SDS011;10703;51.020;6.128;2023-08-20T00:13:12;45.07;;;25.57;;
21089;SDS011;10703;51.020;6.128;2023-08-20T00:15:39;41.43;;;25.57;;
21089;SDS011;10703;51.020;6.128;2023-08-20T00:18:06;52.20;;;27.67;;
21089;SDS011;10703;51.020;6.128;2023-08-20T00:20:33;50.50;;;26.93;;
21089;SDS011;10703;51.020;6.128;2023-08-20T00:23:01;37.60;;;26.23;;
21089;SDS011;10703;51.020;6.128;2023-08-20T00:25:28;42.90;;;25.17;;
21089;SDS011;10703;51.020;6.128;2023-08-20T00:27:55;41.80;;;25.03;;
21089;SDS011;10703;51.020;6.128;2023-08-20T00:30:22;41.57;;;25.07;;
21089;SDS011;10703;51.020;6.128;2023-08-20T00:32:49;39.83;;;25.50;;
21089;SDS011;10703;51.020;6.128;2023-08-20T00:35:16;47.73;;;26.97;;
21089;SDS011;10703;51.020;6.128;2023-08-20T00:37:43;48.70;;;26.80;;
21089;SDS011;10703;51.020;6.128;2023-08-20T00:40:10;54.73;;;26.57;;
21089;SDS011;10703;51.020;6.128;2023-08-20T00:42:37;44.97;;;25.43;;
21089;SDS011;10703;51.020;6.128;2023-08-20T00:45:04;51.40;;;25.30;;
21089;SDS011;10703;51.020;6.128;2023-08-20T00:47:31;45.57;;;25.37;;
21089;SDS011;10703;51.020;6.128;2023-08-20T00:49:59;43.93;;;24.13;;
21089;SDS011;10703;51.020;6.128;2023-08-20T00:52:25;48.20;;;25.00;;
21089;SDS011;10703;51.020;6.128;2023-08-20T00:54:53;46.77;;;24.50;;
21089;SDS011;10703;51.020;6.128;2023-08-20T00:57:20;47.73;;;25.40;;
21089;SDS011;10703;51.020;6.128;2023-08-20T00:59:48;43.57;;;25.57;;
21089;SDS011;10703;51.020;6.128;2023-08-20T01:02:17;44.97;;;25.07;;
21089;SDS011;10703;51.020;6.128;2023-08-20T01:04:44;54.27;;;27.03;;
21089;SDS011;10703;51.020;6.128;2023-08-20T01:07:24;49.73;;;27.13;;
21089;SDS011;10703;51.020;6.128;2023-08-20T01:09:58;45.20;;;27.00;;
21089;SDS011;10703;51.020;6.128;2023-08-20T01:12:27;45.50;;;26.70;;
21089;SDS011;10703;51.020;6.128;2023-08-20T01:14:55;45.30;;;26.03;;
21089;SDS011;10703;51.020;6.128;2023-08-20T01:17:22;46.47;;;25.10;;
21089;SDS011;10703;51.020;6.128;2023-08-20T01:19:49;50.03;;;25.00;;
21089;SDS011;10703;51.020;6.128;2023-08-20T01:30:09;50.13;;;26.63;;
21089;SDS011;10703;51.020;6.128;2023-08-20T01:32:36;48.87;;;26.27;;
21089;SDS011;10703;51.020;6.128;2023-08-20T01:35:04;51.07;;;27.63;;
21089;SDS011;10703;51.020;6.128;2023-08-20T01:37:31;61.83;;;28.30;;
21089;SDS011;10703;51.020;6.128;2023-08-20T01:39:58;52.13;;;30.20;;
21089;SDS011;10703;51.020;6.128;2023-08-20T01:42:24;55.13;;;31.70;;
21089;SDS011;10703;51.020;6.128;2023-08-20T01:44:51;54.87;;;31.57;;
21089;SDS011;10703;51.020;6.128;2023-08-20T01:47:17;52.07;;;30.30;;
21089;SDS011;10703;51.020;6.128;2023-08-20T01:49:44;52.17;;;31.37;;
21089;SDS011;10703;51.020;6.128;2023-08-20T01:52:11;54.90;;;33.03;;
21089;SDS011;10703;51.020;6.128;2023-08-20T01:54:38;50.93;;;29.73;;
21089;SDS011;10703;51.020;6.128;2023-08-20T01:57:05;51.40;;;29.73;;
21089;SDS011;10703;51.020;6.128;2023-08-20T01:59:31;51.27;;;29.37;;
21089;SDS011;10703;51.020;6.128;2023-08-20T02:01:58;49.90;;;29.40;;
21089;SDS011;10703;51.020;6.128;2023-08-20T02:04:24;48.00;;;28.93;;
21089;SDS011;10703;51.020;6.128;2023-08-20T02:06:51;50.77;;;28.03;;
21089;SDS011;10703;51.020;6.128;2023-08-20T02:09:18;49.47;;;28.90;;
21089;SDS011;10703;51.020;6.128;2023-08-20T02:11:45;47.33;;;27.77;;
21089;SDS011;10703;51.020;6.128;2023-08-20T02:14:12;56.27;;;27.63;;
21089;SDS011;10703;51.020;6.128;2023-08-20T02:16:39;54.80;;;27.83;;
21089;SDS011;10703;51.020;6.128;2023-08-20T02:19:06;42.80;;;26.20;;
21089;SDS011;10703;51.020;6.128;2023-08-20T02:21:33;50.73;;;26.73;;
21089;SDS011;10703;51.020;6.128;2023-08-20T02:24:00;47.50;;;26.63;;
21089;SDS011;10703;51.020;6.128;2023-08-20T02:26:27;49.87;;;26.87;;
21089;SDS011;10703;51.020;6.128;2023-08-20T02:28:54;48.80;;;25.20;;
21089;SDS011;10703;51.020;6.128;2023-08-20T02:31:20;48.23;;;25.57;;
21089;SDS011;10703;51.020;6.128;2023-08-20T02:33:47;46.33;;;25.10;;
21089;SDS011;10703;51.020;6.128;2023-08-20T02:36:14;45.07;;;24.70;;
21089;SDS011;10703;51.020;6.128;2023-08-20T02:38:41;50.67;;;23.77;;
21089;SDS011;10703;51.020;6.128;2023-08-20T02:41:07;53.43;;;25.80;;
21089;SDS011;10703;51.020;6.128;2023-08-20T02:43:34;52.70;;;26.00;;
21089;SDS011;10703;51.020;6.128;2023-08-20T02:46:01;46.70;;;24.37;;
21089;SDS011;10703;51.020;6.128;2023-08-20T02:48:29;49.53;;;25.67;;
21089;SDS011;10703;51.020;6.128;2023-08-20T02:50:55;51.03;;;25.30;;
21089;SDS011;10703;51.020;6.128;2023-08-20T02:53:22;56.87;;;26.77;;
21089;SDS011;10703;51.020;6.128;2023-08-20T02:55:49;59.00;;;26.90;;
21089;SDS011;10703;51.020;6.128;2023-08-20T02:58:15;54.27;;;26.50;;
21089;SDS011;10703;51.020;6.128;2023-08-20T03:00:42;52.13;;;26.80;;
21089;SDS011;10703;51.020;6.128;2023-08-20T03:03:11;56.47;;;26.73;;
21089;SDS011;10703;51.020;6.128;2023-08-20T03:05:38;56.37;;;27.13;;
21089;SDS011;10703;51.020;6.128;2023-08-20T03:08:05;57.70;;;26.10;;
21089;SDS011;10703;51.020;6.128;2023-08-20T03:10:33;58.73;;;27.93;;
21089;SDS011;10703;51.020;6.128;2023-08-20T03:13:00;55.30;;;28.10;;
21089;SDS011;10703;51.020;6.128;2023-08-20T03:15:28;63.43;;;29.53;;
21089;SDS011;10703;51.020;6.128;2023-08-20T03:17:55;52.43;;;28.43;;
21089;SDS011;10703;51.020;6.128;2023-08-20T03:20:22;62.27;;;31.87;;
21089;SDS011;10703;51.020;6.128;2023-08-20T03:22:49;62.77;;;31.97;;
21089;SDS011;10703;51.020;6.128;2023-08-20T03:25:15;69.03;;;34.13;;
21089;SDS011;10703;51.020;6.128;2023-08-20T03:27:42;76.83;;;34.77;;
21089;SDS011;10703;51.020;6.128;2023-08-20T03:30:08;75.20;;;36.53;;
21089;SDS011;10703;51.020;6.128;2023-08-20T03:32:35;74.70;;;36.20;;
21089;SDS011;10703;51.020;6.128;2023-08-20T03:35:03;68.33;;;34.77;;
21089;SDS011;10703;51.020;6.128;2023-08-20T03:37:30;67.87;;;34.47;;
21089;SDS011;10703;51.020;6.128;2023-08-20T03:39:57;64.77;;;34.37;;
21089;SDS011;10703;51.020;6.128;2023-08-20T03:42:23;72.30;;;35.27;;
21089;SDS011;10703;51.020;6.128;2023-08-20T03:44:50;60.63;;;33.27;;
21089;SDS011;10703;51.020;6.128;2023-08-20T03:47:16;69.47;;;36.10;;
21089;SDS011;10703;51.020;6.128;2023-08-20T03:49:47;76.50;;;35.70;;
21089;SDS011;10703;51.020;6.128;2023-08-20T03:52:14;84.57;;;38.73;;
21089;SDS011;10703;51.020;6.128;2023-08-20T03:54:41;84.90;;;39.07;;
21089;SDS011;10703;51.020;6.128;2023-08-20T03:57:07;77.67;;;36.87;;
21089;SDS011;10703;51.020;6.128;2023-08-20T03:59:34;80.23;;;36.50;;
21089;SDS011;10703;51.020;6.128;2023-08-20T04:02:01;80.27;;;37.70;;
21089;SDS011;10703;51.020;6.128;2023-08-20T04:04:28;80.63;;;36.57;;
21089;SDS011;10703;51.020;6.128;2023-08-20T04:06:55;76.70;;;37.53;;
21089;SDS011;10703;51.020;6.128;2023-08-20T04:09:21;85.30;;;36.93;;
21089;SDS011;10703;51.020;6.128;2023-08-20T04:11:48;76.03;;;36.63;;
21089;SDS011;10703;51.020;6.128;2023-08-20T04:14:15;81.90;;;37.17;;
21089;SDS011;10703;51.020;6.128;2023-08-20T04:16:42;78.50;;;35.33;;
21089;SDS011;10703;51.020;6.128;2023-08-20T04:19:09;70.83;;;34.23;;
21089;SDS011;10703;51.020;6.128;2023-08-20T04:21:35;70.77;;;34.53;;
21089;SDS011;10703;51.020;6.128;2023-08-20T04:24:02;75.97;;;32.73;;
21089;SDS011;10703;51.020;6.128;2023-08-20T04:26:29;80.50;;;36.57;;
21089;SDS011;10703;51.020;6.128;2023-08-20T04:28:56;91.00;;;37.30;;
21089;SDS011;10703;51.020;6.128;2023-08-20T04:31:22;98.30;;;34.50;;
21089;SDS011;10703;51.020;6.128;2023-08-20T04:33:49;87.30;;;34.50;;
21089;SDS011;10703;51.020;6.128;2023-08-20T04:36:16;83.77;;;34.43;;
21089;SDS011;10703;51.020;6.128;2023-08-20T04:38:42;90.63;;;36.03;;
21089;SDS011;10703;51.020;6.128;2023-08-20T04:41:09;96.33;;;34.33;;
21089;SDS011;10703;51.020;6.128;2023-08-20T04:43:35;92.77;;;35.50;;
21089;SDS011;10703;51.020;6.128;2023-08-20T04:46:02;90.10;;;36.23;;
21089;SDS011;10703;51.020;6.128;2023-08-20T04:48:29;100.47;;;36.27;;
21089;SDS011;10703;51.020;6.128;2023-08-20T04:50:55;91.43;;;37.17;;
21089;SDS011;10703;51.020;6.128;2023-08-20T04:53:22;94.73;;;36.87;;
21089;SDS011;10703;51.020;6.128;2023-08-20T04:55:49;101.10;;;38.43;;
21089;SDS011;10703;51.020;6.128;2023-08-20T04:58:15;97.87;;;37.67;;
21089;SDS011;10703;51.020;6.128;2023-08-20T05:00:42;99.43;;;37.17;;
21089;SDS011;10703;51.020;6.128;2023-08-20T05:03:09;105.40;;;37.53;;
21089;SDS011;10703;51.020;6.128;2023-08-20T05:05:35;96.63;;;39.53;;
21089;SDS011;10703;51.020;6.128;2023-08-20T05:08:02;97.43;;;38.37;;
21089;SDS011;10703;51.020;6.128;2023-08-20T05:10:29;101.77;;;40.43;;
21089;SDS011;10703;51.020;6.128;2023-08-20T05:12:55;101.33;;;40.07;;
21089;SDS011;10703;51.020;6.128;2023-08-20T05:15:22;101.10;;;40.97;;
21089;SDS011;10703;51.020;6.128;2023-08-20T05:17:48;98.80;;;40.53;;
21089;SDS011;10703;51.020;6.128;2023-08-20T05:20:15;109.67;;;41.83;;
21089;SDS011;10703;51.020;6.128;2023-08-20T05:22:42;97.97;;;40.90;;
21089;SDS011;10703;51.020;6.128;2023-08-20T05:25:09;118.77;;;44.80;;
21089;SDS011;10703;51.020;6.128;2023-08-20T05:27:35;112.93;;;43.50;;
21089;SDS011;10703;51.020;6.128;2023-08-20T05:30:03;117.57;;;44.57;;
21089;SDS011;10703;51.020;6.128;2023-08-20T05:32:31;102.73;;;40.97;;
21089;SDS011;10703;51.020;6.128;2023-08-20T05:34:57;113.53;;;43.30;;
21089;SDS011;10703;51.020;6.128;2023-08-20T05:37:24;110.13;;;41.57;;
21089;SDS011;10703;51.020;6.128;2023-08-20T05:39:50;113.40;;;41.67;;
21089;SDS011;10703;51.020;6.128;2023-08-20T05:42:17;119.40;;;42.27;;
21089;SDS011;10703;51.020;6.128;2023-08-20T05:44:44;106.03;;;39.40;;
21089;SDS011;10703;51.020;6.128;2023-08-20T05:47:10;106.97;;;41.50;;
21089;SDS011;10703;51.020;6.128;2023-08-20T05:49:37;107.33;;;41.67;;
21089;SDS011;10703;51.020;6.128;2023-08-20T05:52:04;101.30;;;39.50;;
21089;SDS011;10703;51.020;6.128;2023-08-20T05:54:30;97.73;;;39.83;;
21089;SDS011;10703;51.020;6.128;2023-08-20T05:56:57;103.43;;;40.47;;
21089;SDS011;10703;51.020;6.128;2023-08-20T05:59:25;97.63;;;39.40;;
21089;SDS011;10703;51.020;6.128;2023-08-20T06:01:52;93.00;;;38.03;;
21089;SDS011;10703;51.020;6.128;2023-08-20T06:04:19;86.13;;;38.07;;
21089;SDS011;10703;51.020;6.128;2023-08-20T06:06:46;90.90;;;38.37;;
21089;SDS011;10703;51.020;6.128;2023-08-20T06:09:13;88.03;;;37.73;;
21089;SDS011;10703;51.020;6.128;2023-08-20T06:11:39;77.80;;;36.67;;
21089;SDS011;10703;51.020;6.128;2023-08-20T06:14:06;92.77;;;38.07;;
21089;SDS011;10703;51.020;6.128;2023-08-20T06:16:33;84.60;;;36.97;;
21089;SDS011;10703;51.020;6.128;2023-08-20T06:18:59;73.03;;;34.83;;
21089;SDS011;10703;51.020;6.128;2023-08-20T06:21:29;84.97;;;35.03;;
21089;SDS011;10703;51.020;6.128;2023-08-20T06:23:55;81.23;;;35.77;;
21089;SDS011;10703;51.020;6.128;2023-08-20T06:26:22;73.13;;;34.00;;
21089;SDS011;10703;51.020;6.128;2023-08-20T06:28:49;76.67;;;32.97;;
21089;SDS011;10703;51.020;6.128;2023-08-20T06:31:15;74.57;;;31.57;;
21089;SDS011;10703;51.020;6.128;2023-08-20T06:33:42;74.97;;;31.43;;
21089;SDS011;10703;51.020;6.128;2023-08-20T06:36:09;65.47;;;30.47;;
21089;SDS011;10703;51.020;6.128;2023-08-20T06:38:36;62.30;;;30.30;;
21089;SDS011;10703;51.020;6.128;2023-08-20T06:41:03;59.23;;;28.97;;
21089;SDS011;10703;51.020;6.128;2023-08-20T06:43:29;63.73;;;29.67;;
21089;SDS011;10703;51.020;6.128;2023-08-20T06:45:56;53.07;;;28.63;;
21089;SDS011;10703;51.020;6.128;2023-08-20T06:48:22;47.77;;;26.30;;
21089;SDS011;10703;51.020;6.128;2023-08-20T06:50:51;50.40;;;25.47;;
21089;SDS011;10703;51.020;6.128;2023-08-20T06:53:17;42.73;;;24.80;;
21089;SDS011;10703;51.020;6.128;2023-08-20T06:55:44;47.17;;;23.77;;
21089;SDS011;10703;51.020;6.128;2023-08-20T06:58:10;40.33;;;22.13;;
21089;SDS011;10703;51.020;6.128;2023-08-20T07:00:37;40.58;;;20.33;;
21089;SDS011;10703;51.020;6.128;2023-08-20T07:03:04;33.53;;;18.35;;
21089;SDS011;10703;51.020;6.128;2023-08-20T07:05:31;28.17;;;15.38;;
21089;SDS011;10703;51.020;6.128;2023-08-20T07:07:57;24.25;;;13.88;;
21089;SDS011;10703;51.020;6.128;2023-08-20T07:10:24;19.55;;;11.90;;
21089;SDS011;10703;51.020;6.128;2023-08-20T07:12:50;15.70;;;10.02;;
21089;SDS011;10703;51.020;6.128;2023-08-20T07:15:17;16.23;;;9.68;;
21089;SDS011;10703;51.020;6.128;2023-08-20T07:17:43;14.60;;;9.18;;
21089;SDS011;10703;51.020;6.128;2023-08-20T07:20:11;16.25;;;8.82;;
21089;SDS011;10703;51.020;6.128;2023-08-20T07:22:38;12.23;;;7.90;;
21089;SDS011;10703;51.020;6.128;2023-08-20T07:25:05;14.88;;;7.38;;
21089;SDS011;10703;51.020;6.128;2023-08-20T07:27:32;12.65;;;7.78;;
21089;SDS011;10703;51.020;6.128;2023-08-20T07:29:59;12.48;;;7.72;;
21089;SDS011;10703;51.020;6.128;2023-08-20T07:32:26;14.18;;;7.18;;
21089;SDS011;10703;51.020;6.128;2023-08-20T07:34:52;9.65;;;7.15;;
21089;SDS011;10703;51.020;6.128;2023-08-20T07:37:19;14.40;;;6.90;;
21089;SDS011;10703;51.020;6.128;2023-08-20T07:39:47;17.08;;;7.28;;
21089;SDS011;10703;51.020;6.128;2023-08-20T07:42:13;14.43;;;7.45;;
21089;SDS011;10703;51.020;6.128;2023-08-20T07:44:40;11.55;;;7.32;;
21089;SDS011;10703;51.020;6.128;2023-08-20T07:47:07;13.00;;;7.40;;
21089;SDS011;10703;51.020;6.128;2023-08-20T07:49:33;12.18;;;7.50;;
21089;SDS011;10703;51.020;6.128;2023-08-20T07:52:00;9.60;;;6.93;;
21089;SDS011;10703;51.020;6.128;2023-08-20T07:54:27;16.75;;;7.68;;
21089;SDS011;10703;51.020;6.128;2023-08-20T07:56:56;19.30;;;8.20;;
21089;SDS011;10703;51.020;6.128;2023-08-20T07:59:22;13.10;;;8.55;;
21089;SDS011;10703;51.020;6.128;2023-08-20T08:01:49;17.52;;;9.15;;
21089;SDS011;10703;51.020;6.128;2023-08-20T08:04:16;11.68;;;8.73;;
21089;SDS011;10703;51.020;6.128;2023-08-20T08:06:43;18.17;;;10.68;;
21089;SDS011;10703;51.020;6.128;2023-08-20T08:09:19;15.45;;;10.07;;
21089;SDS011;10703;51.020;6.128;2023-08-20T08:11:53;16.35;;;9.65;;
21089;SDS011;10703;51.020;6.128;2023-08-20T08:14:20;14.52;;;9.63;;
21089;SDS011;10703;51.020;6.128;2023-08-20T08:16:46;20.85;;;10.02;;
21089;SDS011;10703;51.020;6.128;2023-08-20T08:19:14;13.32;;;9.02;;
21089;SDS011;10703;51.020;6.128;2023-08-20T08:21:41;13.73;;;8.70;;
21089;SDS011;10703;51.020;6.128;2023-08-20T08:24:09;12.18;;;8.60;;
21089;SDS011;10703;51.020;6.128;2023-08-20T08:26:36;12.57;;;9.18;;
21089;SDS011;10703;51.020;6.128;2023-08-20T08:29:03;16.60;;;9.88;;
21089;SDS011;10703;51.020;6.128;2023-08-20T08:31:31;15.63;;;9.85;;
21089;SDS011;10703;51.020;6.128;2023-08-20T08:33:58;17.25;;;9.73;;
21089;SDS011;10703;51.020;6.128;2023-08-20T08:36:24;15.52;;;9.38;;
21089;SDS011;10703;51.020;6.128;2023-08-20T08:38:52;11.25;;;8.90;;
21089;SDS011;10703;51.020;6.128;2023-08-20T08:41:21;12.65;;;9.27;;
21089;SDS011;10703;51.020;6.128;2023-08-20T08:43:49;12.93;;;8.90;;
21089;SDS011;10703;51.020;6.128;2023-08-20T08:46:16;15.82;;;8.80;;
21089;SDS011;10703;51.020;6.128;2023-08-20T08:48:43;14.23;;;9.50;;
21089;SDS011;10703;51.020;6.128;2023-08-20T08:51:12;11.30;;;8.50;;
21089;SDS011;10703;51.020;6.128;2023-08-20T08:53:40;12.07;;;8.00;;
21089;SDS011;10703;51.020;6.128;2023-08-20T08:56:08;11.65;;;8.15;;
21089;SDS011;10703;51.020;6.128;2023-08-20T08:58:35;11.95;;;8.82;;
21089;SDS011;10703;51.020;6.128;2023-08-20T09:01:02;14.63;;;8.23;;
21089;SDS011;10703;51.020;6.128;2023-08-20T09:03:29;15.32;;;8.95;;
21089;SDS011;10703;51.020;6.128;2023-08-20T09:05:57;13.65;;;8.50;;
21089;SDS011;10703;51.020;6.128;2023-08-20T09:08:29;15.57;;;10.27;;
21089;SDS011;10703;51.020;6.128;2023-08-20T09:10:59;16.25;;;9.07;;
21089;SDS011;10703;51.020;6.128;2023-08-20T09:13:34;17.27;;;8.88;;
21089;SDS011;10703;51.020;6.128;2023-08-20T09:16:10;11.18;;;7.72;;
21089;SDS011;10703;51.020;6.128;2023-08-20T09:18:39;11.85;;;7.40;;
21089;SDS011;10703;51.020;6.128;2023-08-20T09:21:12;10.93;;;7.53;;
21089;SDS011;10703;51.020;6.128;2023-08-20T09:23:39;18.13;;;7.68;;
21089;SDS011;10703;51.020;6.128;2023-08-20T09:26:07;10.48;;;6.97;;
21089;SDS011;10703;51.020;6.128;2023-08-20T09:28:40;10.13;;;7.53;;
21089;SDS011;10703;51.020;6.128;2023-08-20T09:31:08;11.68;;;7.00;;
21089;SDS011;10703;51.020;6.128;2023-08-20T09:33:37;10.45;;;6.55;;
21089;SDS011;10703;51.020;6.128;2023-08-20T09:36:15;10.13;;;6.00;;
21089;SDS011;10703;51.020;6.128;2023-08-20T09:38:42;8.18;;;6.03;;
21089;SDS011;10703;51.020;6.128;2023-08-20T09:41:09;9.23;;;6.03;;
21089;SDS011;10703;51.020;6.128;2023-08-20T09:43:38;10.35;;;6.90;;
21089;SDS011;10703;51.020;6.128;2023-08-20T09:46:05;10.48;;;5.85;;
21089;SDS011;10703;51.020;6.128;2023-08-20T09:48:35;12.52;;;6.20;;
21089;SDS011;10703;51.020;6.128;2023-08-20T09:51:09;13.52;;;6.40;;
21089;SDS011;10703;51.020;6.128;2023-08-20T09:53:39;13.20;;;5.55;;
21089;SDS011;10703;51.020;6.128;2023-08-20T09:56:15;9.68;;;6.60;;
21089;SDS011;10703;51.020;6.128;2023-08-20T09:58:48;10.00;;;6.28;;
21089;SDS011;10703;51.020;6.128;2023-08-20T10:01:16;7.72;;;5.88;;
21089;SDS011;10703;51.020;6.128;2023-08-20T10:03:43;9.88;;;6.15;;
21089;SDS011;10703;51.020;6.128;2023-08-20T10:06:10;10.23;;;6.70;;
21089;SDS011;10703;51.020;6.128;2023-08-20T10:08:37;10.43;;;6.70;;
21089;SDS011;10703;51.020;6.128;2023-08-20T10:11:04;8.98;;;5.97;;
21089;SDS011;10703;51.020;6.128;2023-08-20T10:13:31;12.15;;;6.75;;
21089;SDS011;10703;51.020;6.128;2023-08-20T10:15:58;9.40;;;6.07;;
21089;SDS011;10703;51.020;6.128;2023-08-20T10:18:26;10.30;;;5.82;;
21089;SDS011;10703;51.020;6.128;2023-08-20T10:20:53;8.15;;;5.60;;
21089;SDS011;10703;51.020;6.128;2023-08-20T10:23:22;10.93;;;5.80;;
21089;SDS011;10703;51.020;6.128;2023-08-20T10:25:49;8.52;;;5.75;;
21089;SDS011;10703;51.020;6.128;2023-08-20T10:28:22;7.97;;;5.95;;
21089;SDS011;10703;51.020;6.128;2023-08-20T10:31:10;9.02;;;5.60;;
21089;SDS011;10703;51.020;6.128;2023-08-20T10:33:39;8.02;;;5.75;;
21089;SDS011;10703;51.020;6.128;2023-08-20T10:36:23;8.15;;;5.50;;
21089;SDS011;10703;51.020;6.128;2023-08-20T10:38:55;8.23;;;5.70;;
21089;SDS011;10703;51.020;6.128;2023-08-20T10:41:26;10.00;;;7.28;;
21089;SDS011;10703;51.020;6.128;2023-08-20T10:43:57;11.55;;;9.60;;
21089;SDS011;10703;51.020;6.128;2023-08-20T10:46:25;18.77;;;10.32;;
21089;SDS011;10703;51.020;6.128;2023-08-20T10:48:56;11.13;;;9.70;;
21089;SDS011;10703;51.020;6.128;2023-08-20T10:56:44;16.90;;;10.13;;
21089;SDS011;10703;51.020;6.128;2023-08-20T10:59:15;16.05;;;9.65;;
21089;SDS011;10703;51.020;6.128;2023-08-20T11:01:58;11.40;;;7.97;;
21089;SDS011;10703;51.020;6.128;2023-08-20T11:04:27;12.30;;;9.40;;
21089;SDS011;10703;51.020;6.128;2023-08-20T11:06:56;15.73;;;9.27;;
21089;SDS011;10703;51.020;6.128;2023-08-20T11:09:24;8.95;;;7.15;;
21089;SDS011;10703;51.020;6.128;2023-08-20T11:11:55;15.70;;;8.18;;
21089;SDS011;10703;51.020;6.128;2023-08-20T11:14:22;11.18;;;9.82;;
21089;SDS011;10703;51.020;6.128;2023-08-20T11:16:50;9.50;;;7.03;;
21089;SDS011;10703;51.020;6.128;2023-08-20T11:19:21;12.15;;;7.57;;
21089;SDS011;10703;51.020;6.128;2023-08-20T11:21:49;9.02;;;7.03;;
21089;SDS011;10703;51.020;6.128;2023-08-20T11:24:17;11.45;;;6.72;;
21089;SDS011;10703;51.020;6.128;2023-08-20T11:26:45;10.40;;;6.63;;
21089;SDS011;10703;51.020;6.128;2023-08-20T11:29:13;9.13;;;6.25;;
21089;SDS011;10703;51.020;6.128;2023-08-20T11:31:47;10.35;;;5.78;;
21089;SDS011;10703;51.020;6.128;2023-08-20T11:34:14;9.95;;;7.05;;
21089;SDS011;10703;51.020;6.128;2023-08-20T11:36:40;13.35;;;7.32;;
21089;SDS011;10703;51.020;6.128;2023-08-20T11:39:07;8.65;;;6.85;;
21089;SDS011;10703;51.020;6.128;2023-08-20T11:41:38;9.75;;;6.03;;
21089;SDS011;10703;51.020;6.128;2023-08-20T11:44:08;9.45;;;6.15;;
21089;SDS011;10703;51.020;6.128;2023-08-20T11:46:41;7.50;;;5.63;;
21089;SDS011;10703;51.020;6.128;2023-08-20T11:49:10;9.82;;;6.32;;
21089;SDS011;10703;51.020;6.128;2023-08-20T11:54:17;6.90;;;4.70;;
21089;SDS011;10703;51.020;6.128;2023-08-20T11:56:44;5.90;;;4.55;;
21089;SDS011;10703;51.020;6.128;2023-08-20T11:59:13;7.82;;;4.75;;
21089;SDS011;10703;51.020;6.128;2023-08-20T12:01:41;11.20;;;4.40;;
21089;SDS011;10703;51.020;6.128;2023-08-20T12:04:08;7.22;;;4.57;;
21089;SDS011;10703;51.020;6.128;2023-08-20T12:06:36;7.20;;;4.78;;
21089;SDS011;10703;51.020;6.128;2023-08-20T12:09:25;7.75;;;5.15;;
21089;SDS011;10703;51.020;6.128;2023-08-20T12:11:52;7.82;;;4.75;;
21089;SDS011;10703;51.020;6.128;2023-08-20T12:14:22;5.47;;;4.63;;
21089;SDS011;10703;51.020;6.128;2023-08-20T12:16:48;6.07;;;4.47;;
21089;SDS011;10703;51.020;6.128;2023-08-20T12:19:17;9.65;;;4.65;;
21089;SDS011;10703;51.020;6.128;2023-08-20T12:21:44;5.22;;;3.80;;
21089;SDS011;10703;51.020;6.128;2023-08-20T12:24:11;4.78;;;4.13;;
21089;SDS011;10703;51.020;6.128;2023-08-20T12:26:38;5.68;;;3.95;;
21089;SDS011;10703;51.020;6.128;2023-08-20T12:29:06;8.82;;;3.83;;
21089;SDS011;10703;51.020;6.128;2023-08-20T12:31:33;9.25;;;3.88;;
21089;SDS011;10703;51.020;6.128;2023-08-20T12:34:01;6.57;;;4.20;;
21089;SDS011;10703;51.020;6.128;2023-08-20T12:36:28;6.15;;;3.72;;
21089;SDS011;10703;51.020;6.128;2023-08-20T12:38:55;5.28;;;3.20;;
21089;SDS011;10703;51.020;6.128;2023-08-20T12:41:22;7.32;;;3.78;;
21089;SDS011;10703;51.020;6.128;2023-08-20T12:43:49;5.38;;;3.53;;
21089;SDS011;10703;51.020;6.128;2023-08-20T12:46:16;4.22;;;3.17;;
21089;SDS011;10703;51.020;6.128;2023-08-20T12:48:43;6.38;;;3.47;;
21089;SDS011;10703;51.020;6.128;2023-08-20T12:51:10;6.35;;;3.28;;
21089;SDS011;10703;51.020;6.128;2023-08-20T12:53:39;5.00;;;3.42;;
21089;SDS011;10703;51.020;6.128;2023-08-20T12:56:06;5.32;;;3.45;;
21089;SDS011;10703;51.020;6.128;2023-08-20T12:58:33;7.78;;;3.55;;
21089;SDS011;10703;51.020;6.128;2023-08-20T13:01:00;4.18;;;3.30;;
21089;SDS011;10703;51.020;6.128;2023-08-20T13:03:27;3.97;;;3.53;;
21089;SDS011;10703;51.020;6.128;2023-08-20T13:05:54;5.15;;;3.67;;
21089;SDS011;10703;51.020;6.128;2023-08-20T13:08:25;5.45;;;3.30;;
21089;SDS011;10703;51.020;6.128;2023-08-20T13:10:56;3.03;;;2.53;;
21089;SDS011;10703;51.020;6.128;2023-08-20T13:13:23;4.18;;;3.08;;
21089;SDS011;10703;51.020;6.128;2023-08-20T13:15:51;5.45;;;3.20;;
21089;SDS011;10703;51.020;6.128;2023-08-20T13:18:20;3.58;;;2.70;;
21089;SDS011;10703;51.020;6.128;2023-08-20T13:20:54;5.00;;;3.20;;
21089;SDS011;10703;51.020;6.128;2023-08-20T13:23:21;3.75;;;2.80;;
21089;SDS011;10703;51.020;6.128;2023-08-20T13:25:48;4.82;;;2.75;;
21089;SDS011;10703;51.020;6.128;2023-08-20T13:28:15;3.88;;;2.60;;
21089;SDS011;10703;51.020;6.128;2023-08-20T13:30:41;7.68;;;3.05;;
21089;SDS011;10703;51.020;6.128;2023-08-20T13:33:08;4.15;;;2.90;;
21089;SDS011;10703;51.020;6.128;2023-08-20T13:35:35;8.50;;;2.95;;
21089;SDS011;10703;51.020;6.128;2023-08-20T13:38:01;2.60;;;2.40;;
21089;SDS011;10703;51.020;6.128;2023-08-20T13:40:30;5.30;;;3.17;;
21089;SDS011;10703;51.020;6.128;2023-08-20T13:42:57;7.05;;;3.15;;
21089;SDS011;10703;51.020;6.128;2023-08-20T13:45:24;3.95;;;2.95;;
21089;SDS011;10703;51.020;6.128;2023-08-20T13:47:50;5.00;;;2.75;;
21089;SDS011;10703;51.020;6.128;2023-08-20T13:50:17;4.80;;;3.00;;
21089;SDS011;10703;51.020;6.128;2023-08-20T13:52:44;3.15;;;2.47;;
21089;SDS011;10703;51.020;6.128;2023-08-20T13:55:10;3.80;;;2.83;;
21089;SDS011;10703;51.020;6.128;2023-08-20T13:57:38;5.10;;;3.13;;
21089;SDS011;10703;51.020;6.128;2023-08-20T14:00:05;3.88;;;2.95;;
21089;SDS011;10703;51.020;6.128;2023-08-20T14:02:36;6.15;;;3.47;;
21089;SDS011;10703;51.020;6.128;2023-08-20T14:05:04;8.65;;;3.42;;
21089;SDS011;10703;51.020;6.128;2023-08-20T14:07:31;4.85;;;3.13;;
21089;SDS011;10703;51.020;6.128;2023-08-20T14:09:59;3.22;;;2.85;;
21089;SDS011;10703;51.020;6.128;2023-08-20T14:12:26;4.70;;;3.42;;
21089;SDS011;10703;51.020;6.128;2023-08-20T14:14:52;6.18;;;3.13;;
21089;SDS011;10703;51.020;6.128;2023-08-20T14:17:19;8.90;;;3.10;;
21089;SDS011;10703;51.020;6.128;2023-08-20T14:19:46;7.88;;;3.30;;
21089;SDS011;10703;51.020;6.128;2023-08-20T14:22:12;7.60;;;4.07;;
21089;SDS011;10703;51.020;6.128;2023-08-20T14:24:39;11.02;;;3.40;;
21089;SDS011;10703;51.020;6.128;2023-08-20T14:27:06;8.75;;;2.83;;
21089;SDS011;10703;51.020;6.128;2023-08-20T14:29:33;5.43;;;2.88;;
21089;SDS011;10703;51.020;6.128;2023-08-20T14:32:00;5.13;;;2.70;;
21089;SDS011;10703;51.020;6.128;2023-08-20T14:34:27;3.53;;;3.22;;
21089;SDS011;10703;51.020;6.128;2023-08-20T14:36:54;4.25;;;3.00;;
21089;SDS011;10703;51.020;6.128;2023-08-20T14:39:21;4.70;;;3.17;;
21089;SDS011;10703;51.020;6.128;2023-08-20T14:41:47;5.38;;;3.00;;
21089;SDS011;10703;51.020;6.128;2023-08-20T14:44:14;4.50;;;3.50;;
21089;SDS011;10703;51.020;6.128;2023-08-20T14:46:41;4.65;;;3.10;;
21089;SDS011;10703;51.020;6.128;2023-08-20T14:49:08;4.72;;;3.00;;